sensor_id;sensor_type;location;lat;lon;timestamp;pressure;altitude;pressure_sealevel;temperature;humidity
48630;BME280;34426;52.180;4.462;2023-03-01T00:01:09;103381.47;;;0.94;82.92
48630;BME280;34426;52.180;4.462;2023-03-01T00:03:35;103375.38;;;0.90;83.22
48630;BME280;34426;52.180;4.462;2023-03-01T00:06:02;103375.50;;;0.89;83.52
48630;BME280;34426;52.180;4.462;2023-03-01T00:08:29;103370.31;;;0.86;83.49
48630;BME280;34426;52.180;4.462;2023-03-01T00:11:05;103374.09;;;0.85;83.79
48630;BME280;34426;52.180;4.462;2023-03-01T00:13:31;103372.63;;;0.81;83.43
48630;BME280;34426;52.180;4.462;2023-03-01T00:15:57;103367.13;;;0.81;83.56
48630;BME280;34426;52.180;4.462;2023-03-01T00:18:22;103363.91;;;0.76;84.15
48630;BME280;34426;52.180;4.462;2023-03-01T00:20:50;103360.72;;;0.80;84.53
48630;BME280;34426;52.180;4.462;2023-03-01T00:23:15;103364.19;;;0.73;84.66
48630;BME280;34426;52.180;4.462;2023-03-01T00:25:43;103358.38;;;0.66;84.17
48630;BME280;34426;52.180;4.462;2023-03-01T00:28:08;103357.38;;;0.67;84.94
48630;BME280;34426;52.180;4.462;2023-03-01T00:30:34;103359.25;;;0.66;85.70
48630;BME280;34426;52.180;4.462;2023-03-01T00:32:59;103349.69;;;0.71;85.35
48630;BME280;34426;52.180;4.462;2023-03-01T00:35:25;103346.94;;;0.71;85.39
48630;BME280;34426;52.180;4.462;2023-03-01T00:37:50;103353.47;;;0.70;85.09
48630;BME280;34426;52.180;4.462;2023-03-01T00:40:16;103350.53;;;0.61;85.51
48630;BME280;34426;52.180;4.462;2023-03-01T00:42:43;103347.06;;;0.59;85.89
48630;BME280;34426;52.180;4.462;2023-03-01T00:45:09;103351.09;;;0.55;86.04
48630;BME280;34426;52.180;4.462;2023-03-01T00:47:34;103349.22;;;0.56;86.07
48630;BME280;34426;52.180;4.462;2023-03-01T00:50:00;103349.94;;;0.58;86.07
48630;BME280;34426;52.180;4.462;2023-03-01T00:52:25;103348.19;;;0.57;86.41
48630;BME280;34426;52.180;4.462;2023-03-01T00:54:52;103354.31;;;0.60;86.32
48630;BME280;34426;52.180;4.462;2023-03-01T00:57:17;103349.34;;;0.54;86.21
48630;BME280;34426;52.180;4.462;2023-03-01T00:59:44;103349.34;;;0.54;86.28
48630;BME280;34426;52.180;4.462;2023-03-01T01:02:10;103333.97;;;0.52;86.47
48630;BME280;34426;52.180;4.462;2023-03-01T01:04:35;103336.75;;;0.52;86.64
48630;BME280;34426;52.180;4.462;2023-03-01T01:07:01;103340.91;;;0.46;86.73
48630;BME280;34426;52.180;4.462;2023-03-01T01:09:26;103342.53;;;0.49;86.37
48630;BME280;34426;52.180;4.462;2023-03-01T01:11:52;103342.94;;;0.44;87.00
48630;BME280;34426;52.180;4.462;2023-03-01T01:14:18;103334.25;;;0.39;87.30
48630;BME280;34426;52.180;4.462;2023-03-01T01:16:45;103333.13;;;0.42;87.58
48630;BME280;34426;52.180;4.462;2023-03-01T01:19:10;103330.91;;;0.45;87.52
48630;BME280;34426;52.180;4.462;2023-03-01T01:21:36;103323.84;;;0.43;87.88
48630;BME280;34426;52.180;4.462;2023-03-01T01:24:03;103328.47;;;0.42;88.24
48630;BME280;34426;52.180;4.462;2023-03-01T01:26:30;103331.66;;;0.38;88.19
48630;BME280;34426;52.180;4.462;2023-03-01T01:28:57;103329.03;;;0.36;88.79
48630;BME280;34426;52.180;4.462;2023-03-01T01:31:23;103321.78;;;0.35;88.37
48630;BME280;34426;52.180;4.462;2023-03-01T01:33:51;103316.75;;;0.40;88.25
48630;BME280;34426;52.180;4.462;2023-03-01T01:36:17;103318.63;;;0.40;88.40
48630;BME280;34426;52.180;4.462;2023-03-01T01:38:43;103315.72;;;0.41;87.80
48630;BME280;34426;52.180;4.462;2023-03-01T01:41:09;103308.31;;;0.32;87.53
48630;BME280;34426;52.180;4.462;2023-03-01T01:43:38;103302.94;;;0.30;88.25
48630;BME280;34426;52.180;4.462;2023-03-01T01:46:06;103298.00;;;0.24;88.03
48630;BME280;34426;52.180;4.462;2023-03-01T01:48:40;103291.63;;;0.24;88.28
48630;BME280;34426;52.180;4.462;2023-03-01T01:51:12;103287.25;;;0.21;87.66
48630;BME280;34426;52.180;4.462;2023-03-01T01:53:39;103288.25;;;0.11;87.61
48630;BME280;34426;52.180;4.462;2023-03-01T01:56:07;103286.31;;;0.02;87.49
48630;BME280;34426;52.180;4.462;2023-03-01T01:58:34;103276.91;;;0.04;87.50
48630;BME280;34426;52.180;4.462;2023-03-01T02:01:01;103282.88;;;-0.01;87.72
48630;BME280;34426;52.180;4.462;2023-03-01T02:03:29;103281.41;;;-0.05;88.07
48630;BME280;34426;52.180;4.462;2023-03-01T02:06:00;103282.41;;;-0.06;87.96
48630;BME280;34426;52.180;4.462;2023-03-01T02:08:31;103276.72;;;-0.14;88.38
48630;BME280;34426;52.180;4.462;2023-03-01T02:10:59;103291.47;;;-0.15;88.15
48630;BME280;34426;52.180;4.462;2023-03-01T02:13:26;103279.16;;;-0.20;88.05
48630;BME280;34426;52.180;4.462;2023-03-01T02:15:51;103280.16;;;-0.21;88.57
48630;BME280;34426;52.180;4.462;2023-03-01T02:18:20;103283.03;;;-0.23;88.67
48630;BME280;34426;52.180;4.462;2023-03-01T02:20:55;103281.84;;;-0.30;88.62
48630;BME280;34426;52.180;4.462;2023-03-01T02:23:25;103276.63;;;-0.33;88.74
48630;BME280;34426;52.180;4.462;2023-03-01T02:25:57;103270.25;;;-0.34;88.71
48630;BME280;34426;52.180;4.462;2023-03-01T02:28:31;103274.59;;;-0.31;89.03
48630;BME280;34426;52.180;4.462;2023-03-01T02:30:57;103278.22;;;-0.30;89.40
48630;BME280;34426;52.180;4.462;2023-03-01T02:33:22;103275.94;;;-0.25;89.18
48630;BME280;34426;52.180;4.462;2023-03-01T02:35:48;103270.84;;;-0.30;89.42
48630;BME280;34426;52.180;4.462;2023-03-01T02:38:14;103269.25;;;-0.32;89.36
48630;BME280;34426;52.180;4.462;2023-03-01T02:40:40;103264.75;;;-0.34;89.32
48630;BME280;34426;52.180;4.462;2023-03-01T02:43:08;103260.13;;;-0.33;89.49
48630;BME280;34426;52.180;4.462;2023-03-01T02:45:36;103263.88;;;-0.34;89.11
48630;BME280;34426;52.180;4.462;2023-03-01T02:48:02;103261.00;;;-0.32;89.63
48630;BME280;34426;52.180;4.462;2023-03-01T02:50:51;103261.25;;;-0.36;89.33
48630;BME280;34426;52.180;4.462;2023-03-01T02:53:22;103259.06;;;-0.42;89.28
48630;BME280;34426;52.180;4.462;2023-03-01T02:55:50;103266.44;;;-0.42;89.62
48630;BME280;34426;52.180;4.462;2023-03-01T02:58:16;103254.56;;;-0.43;89.47
48630;BME280;34426;52.180;4.462;2023-03-01T03:00:43;103256.75;;;-0.46;89.42
48630;BME280;34426;52.180;4.462;2023-03-01T03:03:09;103249.31;;;-0.55;89.49
48630;BME280;34426;52.180;4.462;2023-03-01T03:05:35;103247.13;;;-0.61;89.37
48630;BME280;34426;52.180;4.462;2023-03-01T03:08:02;103243.34;;;-0.60;89.50
48630;BME280;34426;52.180;4.462;2023-03-01T03:10:30;103243.22;;;-0.59;90.19
48630;BME280;34426;52.180;4.462;2023-03-01T03:12:58;103241.22;;;-0.57;89.99
48630;BME280;34426;52.180;4.462;2023-03-01T03:15:25;103236.31;;;-0.53;89.78
48630;BME280;34426;52.180;4.462;2023-03-01T03:17:53;103240.66;;;-0.51;90.03
48630;BME280;34426;52.180;4.462;2023-03-01T03:20:20;103227.34;;;-0.55;89.85
48630;BME280;34426;52.180;4.462;2023-03-01T03:22:47;103232.81;;;-0.55;89.47
48630;BME280;34426;52.180;4.462;2023-03-01T03:25:14;103225.88;;;-0.59;89.95
48630;BME280;34426;52.180;4.462;2023-03-01T03:27:41;103220.38;;;-0.59;89.88
48630;BME280;34426;52.180;4.462;2023-03-01T03:30:08;103219.50;;;-0.60;89.83
48630;BME280;34426;52.180;4.462;2023-03-01T03:32:34;103221.97;;;-0.57;90.09
48630;BME280;34426;52.180;4.462;2023-03-01T03:35:01;103223.38;;;-0.62;90.03
48630;BME280;34426;52.180;4.462;2023-03-01T03:37:27;103226.00;;;-0.61;89.79
48630;BME280;34426;52.180;4.462;2023-03-01T03:39:52;103218.91;;;-0.63;89.39
48630;BME280;34426;52.180;4.462;2023-03-01T03:42:18;103224.94;;;-0.70;89.50
48630;BME280;34426;52.180;4.462;2023-03-01T03:44:43;103228.41;;;-0.68;89.65
48630;BME280;34426;52.180;4.462;2023-03-01T03:47:09;103225.47;;;-0.76;89.51
48630;BME280;34426;52.180;4.462;2023-03-01T03:49:34;103225.75;;;-0.79;89.87
48630;BME280;34426;52.180;4.462;2023-03-01T03:52:01;103218.50;;;-0.80;89.27
48630;BME280;34426;52.180;4.462;2023-03-01T03:54:26;103219.78;;;-0.84;89.84
48630;BME280;34426;52.180;4.462;2023-03-01T03:56:52;103214.16;;;-0.82;89.94
48630;BME280;34426;52.180;4.462;2023-03-01T03:59:17;103221.09;;;-0.88;89.93
48630;BME280;34426;52.180;4.462;2023-03-01T04:01:43;103216.28;;;-0.86;90.27
48630;BME280;34426;52.180;4.462;2023-03-01T04:04:08;103210.50;;;-0.92;89.84
48630;BME280;34426;52.180;4.462;2023-03-01T04:06:34;103210.63;;;-0.94;90.18
48630;BME280;34426;52.180;4.462;2023-03-01T04:09:01;103211.38;;;-0.92;90.30
48630;BME280;34426;52.180;4.462;2023-03-01T04:11:27;103210.63;;;-0.94;89.95
48630;BME280;34426;52.180;4.462;2023-03-01T04:13:54;103219.88;;;-0.95;89.97
48630;BME280;34426;52.180;4.462;2023-03-01T04:16:20;103217.19;;;-1.06;90.05
48630;BME280;34426;52.180;4.462;2023-03-01T04:18:46;103224.69;;;-1.08;90.06
48630;BME280;34426;52.180;4.462;2023-03-01T04:21:11;103216.19;;;-1.05;90.47
48630;BME280;34426;52.180;4.462;2023-03-01T04:23:37;103208.22;;;-1.08;90.30
48630;BME280;34426;52.180;4.462;2023-03-01T04:26:04;103205.94;;;-1.03;90.46
48630;BME280;34426;52.180;4.462;2023-03-01T04:28:31;103203.94;;;-1.01;90.24
48630;BME280;34426;52.180;4.462;2023-03-01T04:30:58;103205.72;;;-1.11;89.77
48630;BME280;34426;52.180;4.462;2023-03-01T04:33:24;103212.22;;;-1.12;90.26
48630;BME280;34426;52.180;4.462;2023-03-01T04:35:50;103208.13;;;-1.18;89.83
48630;BME280;34426;52.180;4.462;2023-03-01T04:38:16;103207.25;;;-1.18;89.94
48630;BME280;34426;52.180;4.462;2023-03-01T04:40:42;103210.16;;;-1.20;90.19
48630;BME280;34426;52.180;4.462;2023-03-01T04:43:09;103203.78;;;-1.20;90.07
48630;BME280;34426;52.180;4.462;2023-03-01T04:45:36;103201.78;;;-1.18;89.93
48630;BME280;34426;52.180;4.462;2023-03-01T04:48:02;103200.28;;;-1.22;89.93
48630;BME280;34426;52.180;4.462;2023-03-01T04:50:28;103190.31;;;-1.23;90.03
48630;BME280;34426;52.180;4.462;2023-03-01T04:52:54;103179.88;;;-1.29;89.65
48630;BME280;34426;52.180;4.462;2023-03-01T04:55:20;103186.41;;;-1.30;90.24
48630;BME280;34426;52.180;4.462;2023-03-01T04:57:46;103189.53;;;-1.35;90.04
48630;BME280;34426;52.180;4.462;2023-03-01T05:00:15;103172.94;;;-1.33;90.25
48630;BME280;34426;52.180;4.462;2023-03-01T05:02:40;103176.28;;;-1.30;90.57
48630;BME280;34426;52.180;4.462;2023-03-01T05:05:06;103180.16;;;-1.32;90.39
48630;BME280;34426;52.180;4.462;2023-03-01T05:07:32;103182.03;;;-1.33;90.20
48630;BME280;34426;52.180;4.462;2023-03-01T05:09:57;103190.16;;;-1.31;90.57
48630;BME280;34426;52.180;4.462;2023-03-01T05:12:23;103189.72;;;-1.27;90.49
48630;BME280;34426;52.180;4.462;2023-03-01T05:14:48;103181.59;;;-1.28;90.65
48630;BME280;34426;52.180;4.462;2023-03-01T05:17:15;103187.72;;;-1.25;90.75
48630;BME280;34426;52.180;4.462;2023-03-01T05:19:41;103184.81;;;-1.23;91.17
48630;BME280;34426;52.180;4.462;2023-03-01T05:22:06;103174.31;;;-1.18;91.68
48630;BME280;34426;52.180;4.462;2023-03-01T05:24:33;103170.97;;;-1.01;92.14
48630;BME280;34426;52.180;4.462;2023-03-01T05:26:59;103164.69;;;-0.92;92.25
48630;BME280;34426;52.180;4.462;2023-03-01T05:29:27;103161.22;;;-0.84;92.46
48630;BME280;34426;52.180;4.462;2023-03-01T05:31:53;103153.72;;;-0.82;92.34
48630;BME280;34426;52.180;4.462;2023-03-01T05:34:23;103157.72;;;-0.86;92.35
48630;BME280;34426;52.180;4.462;2023-03-01T05:36:48;103149.34;;;-0.85;92.42
48630;BME280;34426;52.180;4.462;2023-03-01T05:39:14;103145.91;;;-0.87;92.49
48630;BME280;34426;52.180;4.462;2023-03-01T05:41:39;103139.81;;;-0.90;92.26
48630;BME280;34426;52.180;4.462;2023-03-01T05:44:06;103144.25;;;-0.99;92.14
48630;BME280;34426;52.180;4.462;2023-03-01T05:46:31;103143.03;;;-1.06;91.89
48630;BME280;34426;52.180;4.462;2023-03-01T05:48:57;103141.72;;;-1.12;91.77
48630;BME280;34426;52.180;4.462;2023-03-01T05:51:23;103137.22;;;-1.13;91.92
48630;BME280;34426;52.180;4.462;2023-03-01T05:53:49;103134.94;;;-1.28;91.61
48630;BME280;34426;52.180;4.462;2023-03-01T05:56:14;103133.50;;;-1.32;92.27
48630;BME280;34426;52.180;4.462;2023-03-01T05:58:40;103135.31;;;-1.43;92.43
48630;BME280;34426;52.180;4.462;2023-03-01T06:01:05;103131.09;;;-1.47;92.27
48630;BME280;34426;52.180;4.462;2023-03-01T06:03:35;103127.34;;;-1.46;92.73
48630;BME280;34426;52.180;4.462;2023-03-01T06:06:01;103129.06;;;-1.45;92.62
48630;BME280;34426;52.180;4.462;2023-03-01T06:08:28;103129.06;;;-1.45;92.80
48630;BME280;34426;52.180;4.462;2023-03-01T06:10:53;103136.31;;;-1.44;92.52
48630;BME280;34426;52.180;4.462;2023-03-01T06:13:19;103131.81;;;-1.45;92.99
48630;BME280;34426;52.180;4.462;2023-03-01T06:15:44;103131.81;;;-1.45;92.67
48630;BME280;34426;52.180;4.462;2023-03-01T06:18:10;103132.81;;;-1.46;92.45
48630;BME280;34426;52.180;4.462;2023-03-01T06:20:35;103127.81;;;-1.41;92.73
48630;BME280;34426;52.180;4.462;2023-03-01T06:23:01;103125.59;;;-1.47;92.48
48630;BME280;34426;52.180;4.462;2023-03-01T06:25:27;103135.34;;;-1.54;92.43
48630;BME280;34426;52.180;4.462;2023-03-01T06:27:53;103136.31;;;-1.44;92.84
48630;BME280;34426;52.180;4.462;2023-03-01T06:30:20;103133.44;;;-1.42;92.89
48630;BME280;34426;52.180;4.462;2023-03-01T06:32:46;103140.78;;;-1.43;92.60
48630;BME280;34426;52.180;4.462;2023-03-01T06:35:15;103135.91;;;-1.39;92.83
48630;BME280;34426;52.180;4.462;2023-03-01T06:37:41;103140.13;;;-1.35;92.92
48630;BME280;34426;52.180;4.462;2023-03-01T06:40:10;103134.25;;;-1.30;93.04
48630;BME280;34426;52.180;4.462;2023-03-01T06:42:39;103130.03;;;-1.35;92.70
48630;BME280;34426;52.180;4.462;2023-03-01T06:45:06;103136.25;;;-1.32;93.06
48630;BME280;34426;52.180;4.462;2023-03-01T06:47:32;103134.63;;;-1.35;92.98
48630;BME280;34426;52.180;4.462;2023-03-01T06:49:58;103132.06;;;-1.27;93.27
48630;BME280;34426;52.180;4.462;2023-03-01T06:52:24;103128.06;;;-1.23;93.17
48630;BME280;34426;52.180;4.462;2023-03-01T06:54:49;103134.53;;;-1.24;92.96
48630;BME280;34426;52.180;4.462;2023-03-01T06:57:15;103141.63;;;-1.21;93.00
48630;BME280;34426;52.180;4.462;2023-03-01T06:59:41;103139.03;;;-1.23;92.72
48630;BME280;34426;52.180;4.462;2023-03-01T07:02:09;103135.63;;;-1.15;92.74
48630;BME280;34426;52.180;4.462;2023-03-01T07:04:35;103140.91;;;-1.23;92.72
48630;BME280;34426;52.180;4.462;2023-03-01T07:07:01;103139.50;;;-1.18;92.63
48630;BME280;34426;52.180;4.462;2023-03-01T07:09:26;103150.06;;;-1.13;92.63
48630;BME280;34426;52.180;4.462;2023-03-01T07:11:52;103140.84;;;-1.12;92.74
48630;BME280;34426;52.180;4.462;2023-03-01T07:14:18;103142.59;;;-1.11;92.71
48630;BME280;34426;52.180;4.462;2023-03-01T07:16:45;103135.94;;;-1.09;92.80
48630;BME280;34426;52.180;4.462;2023-03-01T07:19:10;103138.28;;;-1.04;93.03
48630;BME280;34426;52.180;4.462;2023-03-01T07:21:36;103144.25;;;-0.99;92.78
48630;BME280;34426;52.180;4.462;2023-03-01T07:24:01;103147.59;;;-0.95;93.00
48630;BME280;34426;52.180;4.462;2023-03-01T07:26:30;103146.19;;;-0.90;92.91
48630;BME280;34426;52.180;4.462;2023-03-01T07:28:55;103140.97;;;-0.83;93.18
48630;BME280;34426;52.180;4.462;2023-03-01T07:31:23;103143.47;;;-0.80;93.04
48630;BME280;34426;52.180;4.462;2023-03-01T07:33:50;103145.78;;;-0.76;93.12
48630;BME280;34426;52.180;4.462;2023-03-01T07:36:15;103144.25;;;-0.69;93.08
48630;BME280;34426;52.180;4.462;2023-03-01T07:38:41;103147.19;;;-0.60;92.81
48630;BME280;34426;52.180;4.462;2023-03-01T07:41:06;103149.91;;;-0.60;93.24
48630;BME280;34426;52.180;4.462;2023-03-01T07:43:32;103150.38;;;-0.55;93.07
48630;BME280;34426;52.180;4.462;2023-03-01T07:45:58;103152.13;;;-0.54;93.20
48630;BME280;34426;52.180;4.462;2023-03-01T07:48:24;103153.59;;;-0.50;93.16
48630;BME280;34426;52.180;4.462;2023-03-01T07:50:51;103149.81;;;-0.49;93.29
48630;BME280;34426;52.180;4.462;2023-03-01T07:53:17;103149.56;;;-0.46;93.06
48630;BME280;34426;52.180;4.462;2023-03-01T07:55:45;103144.94;;;-0.46;93.29
48630;BME280;34426;52.180;4.462;2023-03-01T07:58:10;103140.72;;;-0.40;93.22
48630;BME280;34426;52.180;4.462;2023-03-01T08:00:36;103137.72;;;-0.27;94.05
48630;BME280;34426;52.180;4.462;2023-03-01T08:03:01;103138.03;;;-0.21;93.82
48630;BME280;34426;52.180;4.462;2023-03-01T08:05:30;103139.50;;;-0.17;94.09
48630;BME280;34426;52.180;4.462;2023-03-01T08:07:57;103139.22;;;-0.14;94.49
48630;BME280;34426;52.180;4.462;2023-03-01T08:10:25;103143.13;;;-0.07;94.71
48630;BME280;34426;52.180;4.462;2023-03-01T08:12:51;103145.00;;;0.03;94.34
48630;BME280;34426;52.180;4.462;2023-03-01T08:15:19;103136.91;;;0.11;94.67
48630;BME280;34426;52.180;4.462;2023-03-01T08:17:45;103140.84;;;0.18;94.78
48630;BME280;34426;52.180;4.462;2023-03-01T08:20:11;103130.84;;;0.26;95.24
48630;BME280;34426;52.180;4.462;2023-03-01T08:22:36;103136.06;;;0.39;95.09
48630;BME280;34426;52.180;4.462;2023-03-01T08:25:04;103121.69;;;0.64;95.80
48630;BME280;34426;52.180;4.462;2023-03-01T08:27:29;103122.84;;;0.72;95.28
48630;BME280;34426;52.180;4.462;2023-03-01T08:29:55;103121.81;;;0.82;95.07
48630;BME280;34426;52.180;4.462;2023-03-01T08:32:20;103116.56;;;0.89;95.13
48630;BME280;34426;52.180;4.462;2023-03-01T08:34:46;103119.72;;;0.94;95.04
48630;BME280;34426;52.180;4.462;2023-03-01T08:37:11;103117.94;;;1.12;95.61
48630;BME280;34426;52.180;4.462;2023-03-01T08:39:40;103115.72;;;1.25;95.76
48630;BME280;34426;52.180;4.462;2023-03-01T08:42:06;103114.19;;;1.41;95.74
48630;BME280;34426;52.180;4.462;2023-03-01T08:44:34;103111.75;;;1.65;95.26
48630;BME280;34426;52.180;4.462;2023-03-01T08:46:59;103106.16;;;1.75;95.35
48630;BME280;34426;52.180;4.462;2023-03-01T08:49:25;103112.75;;;1.91;94.64
48630;BME280;34426;52.180;4.462;2023-03-01T08:51:50;103108.13;;;2.10;94.14
48630;BME280;34426;52.180;4.462;2023-03-01T08:54:18;103110.56;;;2.13;93.57
48630;BME280;34426;52.180;4.462;2023-03-01T08:56:44;103110.63;;;2.21;92.85
48630;BME280;34426;52.180;4.462;2023-03-01T08:59:12;103114.09;;;2.23;92.60
48630;BME280;34426;52.180;4.462;2023-03-01T09:01:38;103125.75;;;2.17;92.67
48630;BME280;34426;52.180;4.462;2023-03-01T09:04:04;103117.72;;;2.23;91.74
48630;BME280;34426;52.180;4.462;2023-03-01T09:06:30;103121.66;;;2.21;91.76
48630;BME280;34426;52.180;4.462;2023-03-01T09:08:55;103120.16;;;2.26;91.88
48630;BME280;34426;52.180;4.462;2023-03-01T09:11:21;103115.91;;;2.32;91.76
48630;BME280;34426;52.180;4.462;2023-03-01T09:13:48;103114.56;;;2.36;91.38
48630;BME280;34426;52.180;4.462;2023-03-01T09:16:16;103123.88;;;2.35;90.71
48630;BME280;34426;52.180;4.462;2023-03-01T09:18:44;103123.16;;;2.33;91.23
48630;BME280;34426;52.180;4.462;2023-03-01T09:21:12;103125.63;;;2.36;91.09
48630;BME280;34426;52.180;4.462;2023-03-01T09:23:40;103120.09;;;2.36;91.10
48630;BME280;34426;52.180;4.462;2023-03-01T09:26:06;103125.94;;;2.33;91.64
48630;BME280;34426;52.180;4.462;2023-03-01T09:28:32;103116.00;;;2.40;91.54
48630;BME280;34426;52.180;4.462;2023-03-01T09:30:58;103109.34;;;2.51;91.24
48630;BME280;34426;52.180;4.462;2023-03-01T09:33:25;103111.25;;;2.50;91.12
48630;BME280;34426;52.180;4.462;2023-03-01T09:35:56;103116.00;;;2.40;91.94
48630;BME280;34426;52.180;4.462;2023-03-01T09:38:21;103104.69;;;2.51;91.63
48630;BME280;34426;52.180;4.462;2023-03-01T09:40:47;103101.38;;;2.48;91.94
48630;BME280;34426;52.180;4.462;2023-03-01T09:43:20;103099.75;;;2.63;91.72
48630;BME280;34426;52.180;4.462;2023-03-01T09:45:48;103105.53;;;2.70;90.76
48630;BME280;34426;52.180;4.462;2023-03-01T09:48:17;103098.72;;;2.82;90.83
48630;BME280;34426;52.180;4.462;2023-03-01T09:50:45;103103.38;;;2.81;91.06
48630;BME280;34426;52.180;4.462;2023-03-01T09:53:14;103094.06;;;2.82;91.45
48630;BME280;34426;52.180;4.462;2023-03-01T09:55:44;103089.84;;;2.96;90.73
48630;BME280;34426;52.180;4.462;2023-03-01T09:58:29;103090.06;;;3.03;91.06
48630;BME280;34426;52.180;4.462;2023-03-01T10:00:59;103081.13;;;3.17;89.76
48630;BME280;34426;52.180;4.462;2023-03-01T10:03:32;103095.91;;;3.33;89.45
48630;BME280;34426;52.180;4.462;2023-03-01T10:06:01;103095.47;;;3.46;88.37
48630;BME280;34426;52.180;4.462;2023-03-01T10:08:38;103097.22;;;3.55;86.04
48630;BME280;34426;52.180;4.462;2023-03-01T10:11:17;103090.34;;;3.67;86.91
48630;BME280;34426;52.180;4.462;2023-03-01T10:13:47;103091.59;;;3.81;85.06
48630;BME280;34426;52.180;4.462;2023-03-01T10:16:19;103093.03;;;4.01;84.85
48630;BME280;34426;52.180;4.462;2023-03-01T10:18:50;103095.81;;;4.10;83.06
48630;BME280;34426;52.180;4.462;2023-03-01T10:21:20;103084.22;;;4.14;82.32
48630;BME280;34426;52.180;4.462;2023-03-01T10:23:46;103070.56;;;4.21;82.59
48630;BME280;34426;52.180;4.462;2023-03-01T10:26:30;103076.63;;;4.24;82.10
48630;BME280;34426;52.180;4.462;2023-03-01T10:29:02;103077.69;;;4.31;82.79
48630;BME280;34426;52.180;4.462;2023-03-01T10:31:37;103065.34;;;4.34;82.78
48630;BME280;34426;52.180;4.462;2023-03-01T10:34:08;103066.44;;;4.33;79.58
48630;BME280;34426;52.180;4.462;2023-03-01T10:36:38;103058.25;;;4.40;80.12
48630;BME280;34426;52.180;4.462;2023-03-01T10:39:12;103053.41;;;4.42;78.45
48630;BME280;34426;52.180;4.462;2023-03-01T10:41:59;103049.25;;;4.54;77.54
48630;BME280;34426;52.180;4.462;2023-03-01T10:44:43;103047.34;;;4.62;78.57
48630;BME280;34426;52.180;4.462;2023-03-01T10:47:18;103045.63;;;4.70;76.88
48630;BME280;34426;52.180;4.462;2023-03-01T10:50:01;103040.41;;;4.75;77.01
48630;BME280;34426;52.180;4.462;2023-03-01T10:52:32;103030.31;;;4.82;77.59
48630;BME280;34426;52.180;4.462;2023-03-01T10:55:00;103039.84;;;4.87;77.75
48630;BME280;34426;52.180;4.462;2023-03-01T10:57:35;103022.69;;;4.92;78.81
48630;BME280;34426;52.180;4.462;2023-03-01T11:00:17;103027.19;;;4.93;75.95
48630;BME280;34426;52.180;4.462;2023-03-01T11:02:43;103032.38;;;4.96;74.32
48630;BME280;34426;52.180;4.462;2023-03-01T11:05:19;103024.75;;;4.98;75.67
48630;BME280;34426;52.180;4.462;2023-03-01T11:07:50;103024.75;;;4.98;75.33
48630;BME280;34426;52.180;4.462;2023-03-01T11:10:18;103023.00;;;5.05;72.96
48630;BME280;34426;52.180;4.462;2023-03-01T11:12:44;103011.22;;;5.03;71.28
48630;BME280;34426;52.180;4.462;2023-03-01T11:15:20;103021.56;;;5.17;71.47
48630;BME280;34426;52.180;4.462;2023-03-01T11:17:46;103021.19;;;5.20;73.10
48630;BME280;34426;52.180;4.462;2023-03-01T11:20:20;103021.81;;;5.39;72.28
48630;BME280;34426;52.180;4.462;2023-03-01T11:22:53;103009.66;;;5.40;71.59
48630;BME280;34426;52.180;4.462;2023-03-01T11:25:21;103012.41;;;5.48;71.18
48630;BME280;34426;52.180;4.462;2023-03-01T11:27:49;103009.78;;;5.54;67.93
48630;BME280;34426;52.180;4.462;2023-03-01T11:30:19;102991.16;;;5.63;69.39
48630;BME280;34426;52.180;4.462;2023-03-01T11:32:47;102990.03;;;5.72;68.40
48630;BME280;34426;52.180;4.462;2023-03-01T11:35:21;102983.00;;;5.84;67.38
48630;BME280;34426;52.180;4.462;2023-03-01T11:37:59;102970.16;;;5.91;65.24
48630;BME280;34426;52.180;4.462;2023-03-01T11:40:32;102975.28;;;6.03;66.05
48630;BME280;34426;52.180;4.462;2023-03-01T11:43:06;102974.50;;;6.09;65.46
48630;BME280;34426;52.180;4.462;2023-03-01T11:45:43;102974.31;;;6.10;66.19
48630;BME280;34426;52.180;4.462;2023-03-01T11:51:05;102974.69;;;6.30;62.95
48630;BME280;34426;52.180;4.462;2023-03-01T11:53:57;102968.97;;;6.46;62.26
48630;BME280;34426;52.180;4.462;2023-03-01T11:56:31;102962.16;;;6.63;63.31
48630;BME280;34426;52.180;4.462;2023-03-01T11:59:21;102962.75;;;6.74;59.14
48630;BME280;34426;52.180;4.462;2023-03-01T12:02:07;102946.47;;;6.71;59.30
48630;BME280;34426;52.180;4.462;2023-03-01T12:04:54;102955.88;;;6.84;57.51
48630;BME280;34426;52.180;4.462;2023-03-01T12:07:34;102945.28;;;6.94;57.43
48630;BME280;34426;52.180;4.462;2023-03-01T12:10:20;102941.25;;;6.97;55.44
48630;BME280;34426;52.180;4.462;2023-03-01T12:12:58;102942.13;;;7.12;55.09
48630;BME280;34426;52.180;4.462;2023-03-01T12:15:45;102935.88;;;7.10;53.35
48630;BME280;34426;52.180;4.462;2023-03-01T12:21:22;102924.53;;;7.26;52.38
48630;BME280;34426;52.180;4.462;2023-03-01T12:24:06;102922.03;;;7.31;52.89
48630;BME280;34426;52.180;4.462;2023-03-01T12:26:36;102914.78;;;7.37;51.50
48630;BME280;34426;52.180;4.462;2023-03-01T12:29:21;102910.34;;;7.21;51.14
48630;BME280;34426;52.180;4.462;2023-03-01T12:32:03;102912.47;;;7.41;51.13
48630;BME280;34426;52.180;4.462;2023-03-01T12:34:42;102909.22;;;7.37;50.48
48630;BME280;34426;52.180;4.462;2023-03-01T12:37:20;102915.53;;;7.46;50.91
48630;BME280;34426;52.180;4.462;2023-03-01T12:40:00;102916.22;;;7.48;52.91
48630;BME280;34426;52.180;4.462;2023-03-01T12:42:34;102906.19;;;7.32;52.46
48630;BME280;34426;52.180;4.462;2023-03-01T12:45:18;102915.53;;;7.46;52.81
48630;BME280;34426;52.180;4.462;2023-03-01T12:48:01;102912.50;;;7.62;53.70
48630;BME280;34426;52.180;4.462;2023-03-01T12:50:38;102897.91;;;7.60;52.14
48630;BME280;34426;52.180;4.462;2023-03-01T12:53:15;102890.56;;;7.74;52.51
48630;BME280;34426;52.180;4.462;2023-03-01T12:55:44;102888.47;;;7.82;51.75
48630;BME280;34426;52.180;4.462;2023-03-01T12:58:22;102898.16;;;7.86;51.15
48630;BME280;34426;52.180;4.462;2023-03-01T13:00:59;102893.06;;;7.90;50.38
48630;BME280;34426;52.180;4.462;2023-03-01T13:03:33;102888.75;;;7.87;49.84
48630;BME280;34426;52.180;4.462;2023-03-01T13:06:15;102892.19;;;7.89;51.06
48630;BME280;34426;52.180;4.462;2023-03-01T13:08:46;102879.47;;;8.01;48.88